Latest Weather Observations for Nambour

IDQ60801

Issued at 11:32 pm EST Friday 3 July 2015 (issued every 30 minutes, with the page automatically refreshed every 10 minutes)

About weather observations | Map of weather stations | Latest weather observations for QLD | Other Formats
Station Details ID: 040988 Name: NAMBOUR DAFF - HILLSIDE Lat: -26.64 Lon: 152.94 Height: 53.24 m
Data from the previous 72 hours. | See also: Recent months at Nambour
Date/Time
EST
Temp
°C
App
Temp
°C
Dew
Point
Rel
Hum
%
Delta-T
°C
Wind Press
QNH
hPa
Press
MSL
hPa
Rain
since 9 am
mm
Dir
 
Spd
km/h
Gust
km/h
Spd
kts
Gust
kts
03/11:00pm 10.3 9.6 7.0 80 1.6 CALM 0 4 0 2 1023.2 1023.2 0.0
03/10:30pm 12.4 11.0 7.3 71 2.5 WSW 4 7 2 4 1023.2 1023.2 0.0
03/10:00pm 12.4 11.3 8.3 76 2.0 WSW 4 7 2 4 1023.4 1023.4 0.0
03/09:30pm 10.0 9.7 8.8 92 0.6 CALM 0 0 0 0 1023.6 1023.6 0.0
03/09:00pm 10.2 9.9 8.5 89 0.8 CALM 0 0 0 0 1023.5 1023.5 0.0
03/08:30pm 10.6 10.2 8.4 86 1.1 CALM 0 0 0 0 1023.3 1023.3 0.0
03/08:00pm 11.1 10.9 9.2 88 0.9 CALM 0 0 0 0 1023.1 1023.1 0.0
03/07:30pm 11.4 11.1 8.6 83 1.4 CALM 0 4 0 2 1022.9 1022.9 0.0
03/07:00pm 12.0 11.6 8.3 78 1.8 CALM 0 6 0 3 1022.7 1022.7 0.0
03/06:30pm 12.9 12.6 8.6 75 2.2 CALM 0 0 0 0 1022.3 1022.3 0.0
03/06:00pm 13.3 12.6 8.6 73 2.3 SSW 2 4 1 2 1021.8 1021.8 0.0
03/05:30pm 13.9 13.1 8.3 69 2.8 WSW 2 4 1 2 1021.7 1021.7 0.0
03/05:00pm 15.3 14.7 7.6 60 3.8 CALM 0 0 0 0 1021.2 1021.2 0.0
03/04:30pm 17.0 15.5 6.8 51 5.1 ESE 4 7 2 4 1020.9 1020.9 0.0
03/04:00pm 17.8 15.7 6.0 46 5.8 SE 6 19 3 10 1020.7 1020.7 0.0
03/03:30pm 18.5 16.4 5.7 43 6.3 SE 6 15 3 8 1020.7 1020.7 0.0
03/03:00pm 18.9 16.7 5.4 41 6.6 SE 6 11 3 6 1020.8 1020.8 0.0
03/02:30pm 19.3 17.3 4.6 38 7.1 SE 4 13 2 7 1020.6 1020.6 0.0
03/02:00pm 18.9 16.4 4.7 39 6.8 E 7 13 4 7 1020.6 1020.6 0.0
03/01:30pm 18.8 16.0 3.4 36 7.2 E 7 13 4 7 1020.7 1020.7 0.0
03/01:00pm 18.8 16.4 4.2 38 6.9 SW 6 13 3 7 1021.0 1021.0 0.0
03/12:30pm 18.3 16.1 5.5 43 6.2 SE 6 15 3 8 1021.4 1021.4 0.0
03/12:00pm 17.5 15.1 4.1 41 6.3 SSE 6 13 3 7 1021.7 1021.7 0.0
03/11:30am 17.3 15.2 3.9 41 6.3 SE 4 11 2 6 1022.2 1022.2 0.0
03/11:00am 17.5 15.1 4.1 41 6.3 NW 6 13 3 7 1022.5 1022.5 0.0
03/10:30am 16.3 13.3 2.3 39 6.3 ESE 7 17 4 9 1022.6 1022.6 0.0
03/10:00am 16.1 13.4 3.5 43 5.8 NW 7 17 4 9 1022.7 1022.7 0.0
03/09:30am 14.9 11.9 1.1 39 6.0 SW 6 17 3 9 1022.8 1022.8 0.0
03/09:00am 14.3 11.2 1.2 41 5.6 W 7 20 4 11 1022.6 1022.6 0.0
03/08:30am 13.9 11.4 1.5 43 5.4 NE 4 7 2 4 1022.1 1022.1 0.0
03/08:00am 13.0 10.5 1.4 45 4.9 WNW 4 15 2 8 1021.6 1021.6 0.0
03/07:30am 11.9 9.4 1.5 49 4.4 N 4 7 2 4 1021.4 1021.4 0.0
03/07:00am 10.2 7.8 2.1 57 3.4 SW 4 7 2 4 1021.2 1021.2 0.0
03/06:30am 8.4 6.0 2.0 64 2.7 SW 4 7 2 4 1021.0 1021.0 0.0
03/06:00am 8.8 6.7 1.7 61 2.9 SSE 2 6 1 3 1020.6 1020.6 0.0
03/05:30am 9.4 6.9 1.6 58 3.2 SW 4 7 2 4 1020.2 1020.2 0.0
03/05:00am 9.1 6.3 2.0 61 3.0 WSW 6 7 3 4 1019.8 1019.8 0.0
03/04:30am 9.6 6.7 1.5 57 3.4 SW 6 13 3 7 1019.5 1019.5 0.0
03/04:00am 10.1 6.6 1.2 54 3.7 SW 9 19 5 10 1019.5 1019.5 0.0
03/03:30am 10.1 6.6 1.5 55 3.6 WSW 9 17 5 9 1019.2 1019.2 0.0
03/03:00am 9.7 7.5 1.1 55 3.5 WSW 2 7 1 4 1019.2 1019.2 0.0
03/02:30am 10.4 7.3 1.5 54 3.7 SSW 7 17 4 9 1019.2 1019.2 0.0
03/02:00am 10.6 7.2 1.7 54 3.7 SW 9 15 5 8 1019.2 1019.2 0.0
03/01:30am 10.7 6.9 1.8 54 3.8 SW 11 22 6 12 1019.4 1019.4 0.0
03/01:00am 11.0 8.5 1.5 52 4.0 NE 4 9 2 5 1019.6 1019.6 0.0
03/12:30am 11.7 7.8 1.4 49 4.4 SSW 11 30 6 16 1019.9 1019.9 0.0
03/12:00am 11.5 8.6 1.5 50 4.2 N 6 13 3 7 1019.6 1019.6 0.0
 
Date/Time
EST
Temp
°C
App
Temp
°C
Dew
Point
Rel
Hum
%
Delta-T
°C
Wind Press
QNH
hPa
Press
MSL
hPa
Rain
since 9 am
mm
Dir
 
Spd
km/h
Gust
km/h
Spd
kts
Gust
kts
02/11:30pm 11.1 8.2 1.4 51 4.1 E 6 11 3 6 1019.9 1019.9 0.0
02/11:00pm 12.1 8.9 0.8 46 4.7 ESE 7 13 4 7 1020.0 1020.0 0.0
02/10:30pm 13.0 9.9 0.1 41 5.4 S 6 13 3 7 1019.9 1019.9 0.0
02/10:00pm 12.9 10.2 0.3 42 5.2 S 4 9 2 5 1019.9 1019.9 0.0
02/09:30pm 13.4 9.8 0.4 41 5.5 SW 9 24 5 13 1019.6 1019.6 0.0
02/09:00pm 11.7 9.7 2.5 53 4.0 E 2 4 1 2 1019.6 1019.6 0.0
02/08:30pm 12.0 10.1 2.7 53 4.1 NE 2 6 1 3 1019.4 1019.4 0.0
02/08:00pm 12.2 10.1 3.9 57 3.7 SE 4 9 2 5 1019.5 1019.5 0.0
02/07:30pm 11.1 9.6 5.2 67 2.7 N 2 6 1 3 1019.3 1019.3 0.0
02/07:00pm 11.0 9.3 6.0 71 2.3 E 4 6 2 3 1019.4 1019.4 0.0
02/06:30pm 11.6 10.0 6.5 71 2.4 WNW 4 7 2 4 1019.3 1019.3 0.0
02/06:00pm 11.7 10.6 7.0 73 2.2 NNW 2 6 1 3 1019.1 1019.1 0.0
02/05:30pm 12.7 11.4 7.8 72 2.4 W 4 9 2 5 1018.9 1018.9 0.0
02/05:00pm 14.8 13.3 6.6 58 4.0 W 4 9 2 5 1018.8 1018.8 0.0
02/04:30pm 16.3 14.2 5.6 49 5.2 WSW 6 9 3 5 1018.6 1018.6 0.0
02/04:00pm 17.4 15.1 5.0 44 5.9 W 6 13 3 7 1018.5 1018.5 0.0
02/03:30pm 18.2 16.1 4.0 39 6.7 SSE 4 9 2 5 1018.5 1018.5 0.0
02/03:00pm 18.7 16.7 6.2 44 6.2 WSW 6 13 3 7 1018.5 1018.5 0.0
02/02:30pm 18.6 16.2 7.1 47 5.8 SW 9 15 5 8 1018.3 1018.3 0.0
02/02:00pm 19.1 16.1 6.2 43 6.4 WSW 11 19 6 10 1018.6 1018.6 0.0
02/01:30pm 19.6 17.1 6.7 43 6.5 SW 9 20 5 11 1018.7 1018.7 0.0
02/01:00pm 20.1 18.4 7.5 44 6.5 W 6 11 3 6 1018.9 1018.9 0.0
02/12:30pm 19.9 17.9 7.0 43 6.6 SW 7 11 4 6 1019.4 1019.4 0.0
02/12:00pm 19.5 17.6 6.9 44 6.4 SW 6 15 3 8 1019.8 1019.8 0.0
02/11:30am 19.4 17.4 7.2 45 6.2 W 7 19 4 10 1020.6 1020.6 0.0
02/11:00am 19.3 16.9 8.6 50 5.6 WSW 11 22 6 12 1021.2 1021.2 0.0
02/10:30am 18.6 16.2 8.8 53 5.1 W 11 19 6 10 1021.6 1021.6 0.0
02/10:00am 18.1 16.5 8.9 55 4.8 WSW 7 17 4 9 1022.2 1022.2 0.0
02/09:30am 17.7 15.9 9.3 58 4.4 WSW 9 17 5 9 1022.3 1022.3 0.0
02/09:00am 17.3 17.3 11.1 67 3.3 NE 2 4 1 2 1021.8 1021.8 0.0
02/08:30am 15.7 16.0 10.9 73 2.6 CALM 0 0 0 0 1021.9 1021.9 0.0
02/08:00am 13.8 14.1 10.8 82 1.6 CALM 0 0 0 0 1021.5 1021.5 0.0
02/07:30am 12.1 12.2 10.0 87 1.1 CALM 0 0 0 0 1021.3 1021.3 0.0
02/07:00am 10.4 9.5 9.2 92 0.6 W 4 9 2 5 1021.0 1021.0 0.0
02/06:30am 10.9 10.8 9.3 90 0.8 CALM 0 0 0 0 1020.8 1020.8 0.0
02/06:00am 10.9 10.5 9.7 92 0.6 WSW 2 4 1 2 1020.7 1020.7 0.0
02/05:30am 10.9 10.4 9.5 91 0.7 WNW 2 6 1 3 1020.4 1020.4 0.0
02/05:00am 12.0 11.4 8.8 81 1.6 WNW 2 6 1 3 1020.6 1020.6 0.0
02/04:30am 12.8 11.5 9.3 79 1.8 WSW 6 9 3 5 1020.3 1020.3 0.0
02/04:00am 12.5 10.6 9.0 79 1.8 WSW 9 19 5 10 1020.5 1020.5 0.0
02/03:30am 11.2 11.0 9.1 87 1.0 CALM 0 0 0 0 1020.6 1020.6 0.0
02/03:00am 11.6 10.8 8.3 80 1.6 WSW 2 7 1 4 1020.6 1020.6 0.0
02/02:30am 12.9 12.7 10.4 85 1.3 WSW 2 6 1 3 1020.7 1020.7 0.0
02/02:00am 11.3 11.2 9.6 89 0.9 CALM 0 0 0 0 1021.0 1021.0 0.0
02/01:30am 12.0 11.1 9.4 84 1.3 SW 4 9 2 5 1021.0 1021.0 0.0
02/01:00am 11.0 11.1 10.1 94 0.5 CALM 0 4 0 2 1021.5 1021.5 0.0
02/12:30am 11.3 10.7 10.4 94 0.5 WNW 4 11 2 6 1021.6 1021.6 0.0
02/12:00am 11.2 11.3 10.0 92 0.6 CALM 0 0 0 0 1021.8 1021.8 0.0
 
Date/Time
EST
Temp
°C
App
Temp
°C
Dew
Point
Rel
Hum
%
Delta-T
°C
Wind Press
QNH
hPa
Press
MSL
hPa
Rain
since 9 am
mm
Dir
 
Spd
km/h
Gust
km/h
Spd
kts
Gust
kts
01/11:30pm 12.5 12.3 10.4 87 1.1 W 2 6 1 3 1021.9 1021.9 0.0
01/11:00pm 12.5 12.7 10.7 89 0.9 CALM 0 4 0 2 1022.2 1022.2 0.0
01/10:30pm 12.6 12.8 11.7 94 0.5 WNW 2 6 1 3 1022.6 1022.6 0.0
01/10:00pm 13.4 13.6 11.8 90 0.9 W 2 6 1 3 1022.6 1022.6 0.0
01/09:30pm 13.7 14.6 12.8 94 0.5 CALM 0 2 0 1 1022.8 1022.8 0.0
01/09:00pm 13.2 13.9 12.1 93 0.6 CALM 0 2 0 1 1022.7 1022.7 0.0
01/08:30pm 14.1 15.1 13.3 95 0.4 CALM 0 0 0 0 1022.5 1022.5 0.0
01/08:00pm 14.7 15.9 13.9 95 0.4 CALM 0 0 0 0 1022.3 1022.3 0.0
01/07:30pm 14.4 15.4 13.1 92 0.7 CALM 0 2 0 1 1021.9 1021.9 0.0
01/07:00pm 15.3 16.6 14.2 93 0.6 CALM 0 0 0 0 1021.6 1021.6 0.0
01/06:30pm 15.8 17.2 14.5 92 0.7 CALM 0 0 0 0 1021.5 1021.5 0.0
01/06:00pm 16.7 17.9 13.8 83 1.6 CALM 0 0 0 0 1021.4 1021.4 0.0
01/05:30pm 17.9 19.0 14.6 81 1.9 W 2 4 1 2 1021.3 1021.3 0.0
01/05:00pm 19.1 20.3 14.8 76 2.5 WNW 2 2 1 1 1021.1 1021.1 0.0
01/04:30pm 20.3 21.3 14.2 68 3.5 ENE 2 4 1 2 1021.0 1021.0 0.0
01/04:00pm 20.2 20.8 14.3 69 3.4 NE 4 7 2 4 1020.9 1020.9 0.0
01/03:30pm 21.0 21.2 14.2 65 4.0 ENE 6 9 3 5 1020.9 1020.9 0.0
01/03:00pm 20.1 20.6 14.0 68 3.5 NE 4 11 2 6 1020.9 1020.9 0.0
01/02:30pm 21.7 22.0 15.1 66 3.9 E 7 9 4 5 1020.8 1020.8 0.0
01/02:00pm 22.4 22.6 13.2 56 5.3 E 4 9 2 5 1021.1 1021.1 0.0
01/01:30pm 22.0 21.9 13.4 58 5.0 ESE 6 7 3 4 1021.3 1021.3 0.0
01/01:00pm 21.3 21.3 13.7 62 4.4 ESE 6 15 3 8 1021.4 1021.4 0.0
01/12:30pm 22.9 23.2 13.4 55 5.5 NE 4 7 2 4 1021.7 1021.7 0.0
01/12:00pm 22.5 23.1 13.0 55 5.4 ENE 2 6 1 3 1022.4 1022.4 0.0
01/11:30am 22.2 22.7 12.7 55 5.4 ENE 2 6 1 3 1023.0 1023.0 0.0
01/11:00am 21.8 22.0 13.2 58 4.9 ENE 4 7 2 4 1023.5 1023.5 0.0
01/10:30am 20.6 21.3 13.3 63 4.2 ENE 2 4 1 2 1024.0 1024.0 0.0
01/10:00am 20.1 20.5 13.8 67 3.6 NE 4 6 2 3 1024.2 1024.2 0.0
01/09:30am 18.7 19.5 13.6 72 2.9 ENE 2 4 1 2 1024.4 1024.4 0.0
01/09:00am 18.0 19.4 14.3 79 2.1 CALM 0 0 0 0 1024.4 1024.4 0.0
01/08:30am 15.6 16.8 13.8 89 1.0 CALM 0 0 0 0 1024.3 1024.3 0.0
01/08:00am 15.9 17.4 14.6 92 0.7 CALM 0 0 0 0 1024.2 1024.2 0.0
01/07:30am 13.8 14.8 13.3 97 0.3 CALM 0 0 0 0 1024.1 1024.1 0.0
01/07:00am 12.5 13.1 12.0 97 0.3 CALM 0 0 0 0 1023.8 1023.8 0.0
01/06:30am 12.4 13.0 11.8 96 0.3 CALM 0 0 0 0 1023.8 1023.8 0.0
01/06:00am 12.7 13.4 12.1 96 0.3 CALM 0 0 0 0 1023.3 1023.3 0.0
01/05:30am 12.9 13.6 12.3 96 0.3 CALM 0 0 0 0 1023.3 1023.3 0.0
01/05:00am 13.3 14.2 12.8 97 0.3 CALM 0 0 0 0 1023.3 1023.3 0.0
01/04:30am 13.0 13.8 12.4 96 0.3 CALM 0 0 0 0 1023.2 1023.2 0.0
01/04:00am 13.2 14.0 12.6 96 0.3 CALM 0 0 0 0 1023.2 1023.2 0.0
01/03:30am 13.4 14.3 12.8 96 0.3 CALM 0 0 0 0 1023.2 1023.2 0.0
01/03:00am 13.8 14.8 13.2 96 0.3 CALM 0 0 0 0 1023.2 1023.2 0.0
01/02:30am 13.6 14.5 13.0 96 0.3 CALM 0 0 0 0 1023.5 1023.5 0.0
01/02:00am 13.6 14.5 13.0 96 0.3 CALM 0 0 0 0 1023.9 1023.9 0.0
01/01:30am 13.5 14.4 12.9 96 0.3 CALM 0 0 0 0 1024.1 1024.1 0.0
01/01:00am 13.7 14.7 13.1 96 0.3 CALM 0 0 0 0 1024.4 1024.4 0.0
01/12:30am 13.6 14.5 13.0 96 0.3 CALM 0 0 0 0 1024.6 1024.6 0.0
01/12:00am 13.8 14.7 13.0 95 0.4 CALM 0 0 0 0 1024.9 1024.9 0.0

Other Formats:

Comma delimited format used in spreadsheet applications
http://www.bom.gov.au/fwo/IDQ60801/IDQ60801.95572.axf

JavaScript Object Notation format (JSON) in row-major order
http://www.bom.gov.au/fwo/IDQ60801/IDQ60801.95572.json